createdAt,value
2017-12-10T00:00:50.452Z,0
2017-12-10T00:01:50.718Z,0
2017-12-10T00:02:50.979Z,0
2017-12-10T00:03:50.736Z,0
2017-12-10T00:04:50.749Z,0
2017-12-10T00:05:51.008Z,0
2017-12-10T00:06:50.516Z,0
2017-12-10T00:07:50.530Z,0
2017-12-10T00:08:50.287Z,0
2017-12-10T00:09:50.805Z,0
2017-12-10T00:10:51.156Z,0
2017-12-10T00:11:51.127Z,0
2017-12-10T00:12:50.836Z,0
2017-12-10T00:13:50.856Z,0
2017-12-10T00:14:51.113Z,0
2017-12-10T00:15:51.121Z,0
2017-12-10T00:16:50.628Z,0
2017-12-10T00:17:51.142Z,0
2017-12-10T00:18:51.152Z,0
2017-12-10T00:19:51.168Z,0
2017-12-10T00:20:51.240Z,0
2017-12-10T00:21:50.935Z,0
2017-12-10T00:22:50.985Z,0
2017-12-10T00:23:51.217Z,0
2017-12-10T00:24:50.966Z,0
2017-12-10T00:25:50.726Z,0
2017-12-10T00:26:51.294Z,0
2017-12-10T00:27:51.266Z,0
2017-12-10T00:28:50.762Z,0
2017-12-10T00:29:51.045Z,0
2017-12-10T00:30:51.034Z,0
2017-12-10T00:31:51.046Z,0
2017-12-10T00:32:51.308Z,0
2017-12-10T00:33:50.818Z,0
2017-12-10T00:34:51.339Z,0
2017-12-10T00:35:51.086Z,0
2017-12-10T00:36:51.112Z,0
2017-12-10T00:37:51.109Z,0
2017-12-10T00:38:51.375Z,0
2017-12-10T00:39:51.391Z,0
2017-12-10T00:40:51.395Z,0
2017-12-10T00:41:51.460Z,0
2017-12-10T00:42:51.417Z,0
2017-12-10T00:43:50.930Z,0
2017-12-10T00:44:51.192Z,0
2017-12-10T00:45:51.456Z,0
2017-12-10T00:46:51.471Z,0
2017-12-10T00:47:50.971Z,0
2017-12-10T00:48:51.494Z,0
2017-12-10T00:49:51.247Z,0
2017-12-10T00:50:51.522Z,0
2017-12-10T00:51:51.017Z,0
2017-12-10T00:52:51.534Z,0
2017-12-10T00:53:51.293Z,0
2017-12-10T00:54:51.555Z,0
2017-12-10T00:55:51.315Z,0
2017-12-10T00:56:50.871Z,0
2017-12-10T00:57:51.588Z,0
2017-12-10T00:58:51.107Z,0
2017-12-10T00:59:51.608Z,0
2017-12-10T01:00:51.370Z,0
2017-12-10T01:01:51.129Z,0
2017-12-10T01:02:51.139Z,0
2017-12-10T01:03:51.657Z,0
2017-12-10T01:04:51.669Z,0
2017-12-10T01:05:51.428Z,0
2017-12-10T01:06:51.184Z,0
2017-12-10T01:07:51.450Z,0
2017-12-10T01:08:51.711Z,0
2017-12-10T01:09:51.473Z,0
2017-12-10T01:10:51.739Z,0
2017-12-10T01:11:51.740Z,0
2017-12-10T01:12:51.765Z,0
2017-12-10T01:13:51.513Z,0
2017-12-10T01:14:51.527Z,0
2017-12-10T01:15:51.804Z,0
2017-12-10T01:16:51.564Z,0
2017-12-10T01:17:51.810Z,0
2017-12-10T01:18:51.071Z,0
2017-12-10T01:19:51.832Z,0
2017-12-10T01:20:51.844Z,0
2017-12-10T01:21:51.865Z,0
2017-12-10T01:22:51.881Z,0
2017-12-10T01:23:51.886Z,0
2017-12-10T01:24:51.896Z,0
2017-12-10T01:25:51.903Z,0
2017-12-10T01:26:51.406Z,0
2017-12-10T01:27:51.672Z,0
2017-12-10T01:28:51.689Z,0
2017-12-10T01:29:52.002Z,0
2017-12-10T01:30:51.709Z,0
2017-12-10T01:31:51.467Z,0
2017-12-10T01:32:51.982Z,0
2017-12-10T01:33:51.736Z,0
2017-12-10T01:34:51.996Z,0
2017-12-10T01:35:52.010Z,0
2017-12-10T01:36:51.768Z,0
2017-12-10T01:37:52.041Z,0
2017-12-10T01:38:51.558Z,0
2017-12-10T01:39:51.851Z,0
2017-12-10T01:40:51.813Z,0
2017-12-10T01:41:52.080Z,0
2017-12-10T01:42:51.832Z,0
2017-12-10T01:43:51.845Z,0
2017-12-10T01:44:51.904Z,0
2017-12-10T01:45:52.194Z,0
2017-12-10T01:46:52.139Z,0
2017-12-10T01:47:52.158Z,0
2017-12-10T01:48:52.158Z,0
2017-12-10T01:49:51.912Z,0
2017-12-10T01:50:51.937Z,0
2017-12-10T01:51:52.199Z,0
2017-12-10T01:52:51.944Z,0
2017-12-10T01:53:51.708Z,0
2017-12-10T01:54:52.308Z,0
2017-12-10T01:55:52.231Z,0
2017-12-10T01:56:52.247Z,0
2017-12-10T01:57:52.255Z,0
2017-12-10T01:58:52.018Z,0
2017-12-10T01:59:51.823Z,0
2017-12-10T02:00:52.294Z,0
2017-12-10T02:01:52.320Z,0
2017-12-10T02:02:52.056Z,0
2017-12-10T02:03:52.322Z,0
2017-12-10T02:04:52.082Z,0
2017-12-10T02:05:52.342Z,0
2017-12-10T02:06:52.341Z,0
2017-12-10T02:07:52.109Z,0
2017-12-10T02:08:51.879Z,0
2017-12-10T02:09:52.137Z,0
2017-12-10T02:10:52.145Z,0
2017-12-10T02:11:52.157Z,0
2017-12-10T02:12:51.917Z,0
2017-12-10T02:13:52.175Z,0
2017-12-10T02:14:52.505Z,0
2017-12-10T02:15:52.199Z,0
2017-12-10T02:16:51.960Z,0
2017-12-10T02:17:52.471Z,0
2017-12-10T02:18:52.486Z,0
2017-12-10T02:19:52.498Z,0
2017-12-10T02:20:52.512Z,0
2017-12-10T02:21:52.267Z,0
2017-12-10T02:22:52.023Z,0
2017-12-10T02:23:52.551Z,0
2017-12-10T02:24:52.303Z,0
2017-12-10T02:25:52.311Z,0
2017-12-10T02:26:52.321Z,0
2017-12-10T02:27:52.331Z,0
2017-12-10T02:28:52.340Z,0
2017-12-10T02:29:52.150Z,0
2017-12-10T02:30:52.617Z,0
2017-12-10T02:31:52.630Z,0
2017-12-10T02:32:52.384Z,0
2017-12-10T02:33:52.397Z,0
2017-12-10T02:34:52.665Z,0
2017-12-10T02:35:52.678Z,0
2017-12-10T02:36:52.429Z,0
2017-12-10T02:37:52.446Z,0
2017-12-10T02:38:52.461Z,0
2017-12-10T02:39:52.717Z,0
2017-12-10T02:40:52.479Z,0
2017-12-10T02:41:52.498Z,0
2017-12-10T02:42:52.496Z,0
2017-12-10T02:43:52.539Z,0
2017-12-10T02:44:52.819Z,0
2017-12-10T02:45:52.799Z,0
2017-12-10T02:46:52.815Z,0
2017-12-10T02:47:52.804Z,0
2017-12-10T02:48:52.330Z,0
2017-12-10T02:49:52.573Z,0
2017-12-10T02:50:52.331Z,0
2017-12-10T02:51:52.091Z,0
2017-12-10T02:52:52.663Z,0
2017-12-10T02:53:52.885Z,0
2017-12-10T02:54:52.373Z,0
2017-12-10T02:55:52.912Z,0
2017-12-10T02:56:52.399Z,0
2017-12-10T02:57:52.910Z,0
2017-12-10T02:58:52.923Z,0
2017-12-10T02:59:52.932Z,0
2017-12-10T03:00:52.690Z,0
2017-12-10T03:01:53.002Z,0
2017-12-10T03:02:52.720Z,0
2017-12-10T03:03:52.469Z,0
2017-12-10T03:04:52.733Z,0
2017-12-10T03:05:52.995Z,0
2017-12-10T03:06:52.752Z,0
2017-12-10T03:07:52.768Z,0
2017-12-10T03:08:53.027Z,0
2017-12-10T03:09:52.794Z,0
2017-12-10T03:10:53.045Z,0
2017-12-10T03:11:52.808Z,0
2017-12-10T03:12:52.817Z,0
2017-12-10T03:13:53.079Z,0
2017-12-10T03:14:53.090Z,0
2017-12-10T03:15:52.852Z,0
2017-12-10T03:16:53.162Z,0
2017-12-10T03:17:53.122Z,0
2017-12-10T03:18:52.886Z,0
2017-12-10T03:19:52.892Z,0
2017-12-10T03:20:52.904Z,0
2017-12-10T03:21:53.170Z,0
2017-12-10T03:22:53.183Z,0
2017-12-10T03:23:52.938Z,0
2017-12-10T03:24:53.206Z,0
2017-12-10T03:25:52.711Z,0
2017-12-10T03:26:53.234Z,0
2017-12-10T03:27:53.237Z,0
2017-12-10T03:28:53.256Z,0
2017-12-10T03:29:53.258Z,0
2017-12-10T03:30:53.326Z,0
2017-12-10T03:31:53.074Z,0
2017-12-10T03:32:53.031Z,0
2017-12-10T03:33:53.303Z,0
2017-12-10T03:34:53.310Z,0
2017-12-10T03:35:52.813Z,0
2017-12-10T03:36:52.823Z,0
2017-12-10T03:37:53.098Z,0
2017-12-10T03:38:52.849Z,0
2017-12-10T03:39:53.112Z,0
2017-12-10T03:40:53.375Z,0
2017-12-10T03:41:53.381Z,0
2017-12-10T03:42:53.392Z,0
2017-12-10T03:43:53.408Z,0
2017-12-10T03:44:52.656Z,0
2017-12-10T03:45:53.426Z,0
2017-12-10T03:46:53.484Z,0
2017-12-10T03:47:53.469Z,0
2017-12-10T03:48:53.201Z,0
2017-12-10T03:49:53.525Z,0
2017-12-10T03:50:52.971Z,0
2017-12-10T03:51:52.980Z,0
2017-12-10T03:52:53.498Z,0
2017-12-10T03:53:53.508Z,0
2017-12-10T03:54:53.294Z,0
2017-12-10T03:55:53.528Z,0
2017-12-10T03:56:53.035Z,0
2017-12-10T03:57:53.553Z,0
2017-12-10T03:58:53.056Z,0
2017-12-10T03:59:53.067Z,0
2017-12-10T04:00:53.098Z,0
2017-12-10T04:01:53.642Z,0
2017-12-10T04:02:53.357Z,0
2017-12-10T04:03:53.612Z,0
2017-12-10T04:04:53.120Z,0
2017-12-10T04:05:53.128Z,0
2017-12-10T04:06:53.140Z,0
2017-12-10T04:07:53.401Z,0
2017-12-10T04:08:53.414Z,0
2017-12-10T04:09:53.670Z,0
2017-12-10T04:10:53.709Z,0
2017-12-10T04:11:53.191Z,0
2017-12-10T04:12:53.705Z,0
2017-12-10T04:13:53.727Z,0
2017-12-10T04:14:53.728Z,0
2017-12-10T04:15:53.524Z,0
2017-12-10T04:16:53.597Z,0
2017-12-10T04:17:53.505Z,0
2017-12-10T04:18:53.524Z,0
2017-12-10T04:19:53.272Z,0
2017-12-10T04:20:53.540Z,0
2017-12-10T04:21:53.293Z,0
2017-12-10T04:22:53.807Z,0
2017-12-10T04:23:53.823Z,0
2017-12-10T04:24:53.580Z,0
2017-12-10T04:25:53.585Z,0
2017-12-10T04:26:53.851Z,0
2017-12-10T04:27:53.862Z,0
2017-12-10T04:28:53.870Z,0
2017-12-10T04:29:53.885Z,0
2017-12-10T04:30:53.889Z,0
2017-12-10T04:31:53.952Z,0
2017-12-10T04:32:53.914Z,0
2017-12-10T04:33:53.961Z,0
2017-12-10T04:34:53.432Z,0
2017-12-10T04:35:53.692Z,0
2017-12-10T04:36:53.705Z,0
2017-12-10T04:37:53.731Z,0
2017-12-10T04:38:53.979Z,0
2017-12-10T04:39:53.985Z,0
2017-12-10T04:40:54.051Z,0
2017-12-10T04:41:54.011Z,0
2017-12-10T04:42:54.016Z,0
2017-12-10T04:43:53.772Z,0
2017-12-10T04:44:54.038Z,0
2017-12-10T04:45:54.046Z,0
2017-12-10T04:46:53.801Z,0
2017-12-10T04:47:53.613Z,0
2017-12-10T04:48:53.826Z,0
2017-12-10T04:49:53.840Z,0
2017-12-10T04:50:53.846Z,0
2017-12-10T04:51:53.608Z,0
2017-12-10T04:52:53.610Z,0
2017-12-10T04:53:53.873Z,0
2017-12-10T04:54:54.135Z,0
2017-12-10T04:55:53.904Z,0
2017-12-10T04:56:54.162Z,0
2017-12-10T04:57:53.919Z,0
2017-12-10T04:58:54.182Z,0
2017-12-10T04:59:54.189Z,0
2017-12-10T05:00:54.200Z,0
2017-12-10T05:01:54.210Z,0
2017-12-10T05:02:54.022Z,0
2017-12-10T05:03:53.978Z,0
2017-12-10T05:04:54.243Z,0
2017-12-10T05:05:54.002Z,0
2017-12-10T05:06:53.766Z,0
2017-12-10T05:07:54.029Z,0
2017-12-10T05:08:54.288Z,0
2017-12-10T05:09:53.793Z,0
2017-12-10T05:10:54.057Z,0
2017-12-10T05:11:54.067Z,0
2017-12-10T05:12:54.075Z,0
2017-12-10T05:13:53.832Z,0
2017-12-10T05:14:54.115Z,0
2017-12-10T05:15:53.853Z,0
2017-12-10T05:16:54.448Z,0
2017-12-10T05:17:53.873Z,0
2017-12-10T05:18:53.935Z,0
2017-12-10T05:19:54.402Z,0
2017-12-10T05:20:54.406Z,0
2017-12-10T05:21:54.167Z,0
2017-12-10T05:22:53.920Z,0
2017-12-10T05:23:54.454Z,0
2017-12-10T05:24:54.193Z,0
2017-12-10T05:25:54.458Z,0
2017-12-10T05:26:53.964Z,0
2017-12-10T05:27:53.719Z,0
2017-12-10T05:28:54.234Z,0
2017-12-10T05:29:54.248Z,0
2017-12-10T05:30:54.526Z,0
2017-12-10T05:31:54.264Z,0
2017-12-10T05:32:54.275Z,0
2017-12-10T05:33:54.366Z,0
2017-12-10T05:34:54.294Z,0
2017-12-10T05:35:54.304Z,0
2017-12-10T05:36:54.325Z,0
2017-12-10T05:37:54.339Z,0
2017-12-10T05:38:54.608Z,0
2017-12-10T05:39:54.605Z,0
2017-12-10T05:40:54.617Z,0
2017-12-10T05:41:54.364Z,0
2017-12-10T05:42:54.376Z,0
2017-12-10T05:43:54.388Z,0
2017-12-10T05:44:54.651Z,0
2017-12-10T05:45:54.673Z,0
2017-12-10T05:46:54.171Z,0
2017-12-10T05:47:54.682Z,0
2017-12-10T05:48:54.750Z,0
2017-12-10T05:49:54.451Z,0
2017-12-10T05:50:54.709Z,0
2017-12-10T05:51:54.216Z,0
2017-12-10T05:52:54.479Z,0
2017-12-10T05:53:54.775Z,0
2017-12-10T05:54:54.499Z,0
2017-12-10T05:55:54.762Z,0
2017-12-10T05:56:54.012Z,0
2017-12-10T05:57:54.277Z,0
2017-12-10T05:58:54.787Z,0
2017-12-10T05:59:54.800Z,0
2017-12-10T06:00:54.559Z,0
2017-12-10T06:01:54.823Z,0
2017-12-10T06:02:54.827Z,0
2017-12-10T06:03:54.738Z,0
2017-12-10T06:04:54.602Z,0
2017-12-10T06:05:54.875Z,0
2017-12-10T06:06:54.865Z,0
2017-12-10T06:07:54.884Z,0
2017-12-10T06:08:54.887Z,0
2017-12-10T06:09:54.641Z,0
2017-12-10T06:10:54.658Z,0
2017-12-10T06:11:54.411Z,0
2017-12-10T06:12:54.422Z,0
2017-12-10T06:13:54.938Z,0
2017-12-10T06:14:54.696Z,0
2017-12-10T06:15:54.704Z,0
2017-12-10T06:16:54.712Z,0
2017-12-10T06:17:54.980Z,0
2017-12-10T06:18:54.786Z,0
2017-12-10T06:19:54.750Z,4
2017-12-10T06:20:55.008Z,0
2017-12-10T06:21:55.015Z,0
2017-12-10T06:22:55.024Z,4
2017-12-10T06:23:55.038Z,0
2017-12-10T06:24:55.050Z,4
2017-12-10T06:25:54.550Z,4
2017-12-10T06:26:54.558Z,8
2017-12-10T06:27:54.830Z,8
2017-12-10T06:28:55.083Z,8
2017-12-10T06:29:54.589Z,12
2017-12-10T06:30:54.850Z,8
2017-12-10T06:31:55.123Z,12
2017-12-10T06:32:54.875Z,16
2017-12-10T06:33:55.180Z,16
2017-12-10T06:34:54.894Z,24
2017-12-10T06:35:54.900Z,24
2017-12-10T06:36:54.656Z,28
2017-12-10T06:37:54.669Z,36
2017-12-10T06:38:54.679Z,40
2017-12-10T06:39:55.197Z,44
2017-12-10T06:40:55.206Z,52
2017-12-10T06:41:54.958Z,64
2017-12-10T06:42:54.722Z,72
2017-12-10T06:43:55.029Z,84
2017-12-10T06:44:55.239Z,92
2017-12-10T06:45:54.995Z,108
2017-12-10T06:46:54.761Z,116
2017-12-10T06:47:55.022Z,132
2017-12-10T06:48:55.084Z,148
2017-12-10T06:49:55.296Z,164
2017-12-10T06:50:54.800Z,180
2017-12-10T06:51:55.312Z,200
2017-12-10T06:52:55.321Z,216
2017-12-10T06:53:55.108Z,232
2017-12-10T06:54:54.835Z,252
2017-12-10T06:55:55.347Z,272
2017-12-10T06:56:54.853Z,292
2017-12-10T06:57:55.119Z,320
2017-12-10T06:58:55.130Z,348
2017-12-10T06:59:55.137Z,384
2017-12-10T07:00:55.403Z,420
2017-12-10T07:01:54.907Z,464
2017-12-10T07:02:54.928Z,508
2017-12-10T07:03:55.481Z,556
2017-12-10T07:04:55.437Z,600
2017-12-10T07:05:55.450Z,640
2017-12-10T07:06:55.461Z,672
2017-12-10T07:07:55.215Z,696
2017-12-10T07:08:54.974Z,724
2017-12-10T07:09:55.494Z,752
2017-12-10T07:10:55.248Z,780
2017-12-10T07:11:54.751Z,812
2017-12-10T07:12:54.762Z,848
2017-12-10T07:13:55.279Z,888
2017-12-10T07:14:55.307Z,936
2017-12-10T07:15:55.558Z,972
2017-12-10T07:16:55.304Z,1016
2017-12-10T07:17:55.314Z,1060
2017-12-10T07:18:55.384Z,1096
2017-12-10T07:19:55.336Z,1128
2017-12-10T07:20:55.593Z,1160
2017-12-10T07:21:55.373Z,1192
2017-12-10T07:22:55.615Z,1236
2017-12-10T07:23:55.626Z,1292
2017-12-10T07:24:55.633Z,1336
2017-12-10T07:25:55.142Z,1372
2017-12-10T07:26:55.401Z,1396
2017-12-10T07:27:55.668Z,1436
2017-12-10T07:28:55.440Z,1488
2017-12-10T07:29:55.180Z,1536
2017-12-10T07:30:55.451Z,1600
2017-12-10T07:31:55.458Z,1624
2017-12-10T07:32:55.463Z,1604
2017-12-10T07:33:55.779Z,1620
2017-12-10T07:34:55.735Z,1524
2017-12-10T07:35:55.743Z,1608
2017-12-10T07:36:55.501Z,1580
2017-12-10T07:37:55.761Z,1580
2017-12-10T07:38:55.875Z,1644
2017-12-10T07:39:55.575Z,1772
2017-12-10T07:40:55.547Z,1956
2017-12-10T07:41:55.298Z,2192
2017-12-10T07:42:55.309Z,2436
2017-12-10T07:43:55.574Z,2612
2017-12-10T07:44:55.597Z,2760
2017-12-10T07:45:55.841Z,2768
2017-12-10T07:46:55.666Z,2808
2017-12-10T07:47:55.863Z,2848
2017-12-10T07:48:55.931Z,2956
2017-12-10T07:49:55.883Z,3088
2017-12-10T07:50:55.895Z,3220
2017-12-10T07:51:55.905Z,3320
2017-12-10T07:52:55.659Z,3404
2017-12-10T07:53:55.417Z,3432
2017-12-10T07:54:55.930Z,3292
2017-12-10T07:55:55.691Z,3192
2017-12-10T07:56:55.951Z,3100
2017-12-10T07:57:55.711Z,2868
2017-12-10T07:58:55.978Z,2792
2017-12-10T07:59:55.984Z,2520
2017-12-10T08:00:55.740Z,2588
2017-12-10T08:01:55.809Z,2468
2017-12-10T08:02:55.768Z,2272
2017-12-10T08:03:55.820Z,2160
2017-12-10T08:04:55.782Z,2164
2017-12-10T08:05:55.540Z,2192
2017-12-10T08:06:55.805Z,2248
2017-12-10T08:07:55.832Z,2308
2017-12-10T08:08:56.074Z,2336
2017-12-10T08:09:55.839Z,2352
2017-12-10T08:10:55.851Z,2336
2017-12-10T08:11:55.600Z,2320
2017-12-10T08:12:55.869Z,2332
2017-12-10T08:13:55.883Z,2292
2017-12-10T08:14:55.890Z,2356
2017-12-10T08:15:55.902Z,2472
2017-12-10T08:16:55.906Z,2660
2017-12-10T08:17:56.170Z,2556
2017-12-10T08:18:56.178Z,2404
2017-12-10T08:19:56.213Z,2968
2017-12-10T08:20:56.311Z,2692
2017-12-10T08:21:55.968Z,2912
2017-12-10T08:22:55.715Z,3544
2017-12-10T08:23:55.986Z,3856
2017-12-10T08:24:55.989Z,4604
2017-12-10T08:25:55.994Z,4892
2017-12-10T08:26:56.010Z,4940
2017-12-10T08:27:55.767Z,5200
2017-12-10T08:28:56.043Z,5628
2017-12-10T08:29:56.039Z,5764
2017-12-10T08:30:56.053Z,5784
2017-12-10T08:31:56.392Z,5636
2017-12-10T08:32:55.830Z,5128
2017-12-10T08:33:56.346Z,5152
2017-12-10T08:34:56.359Z,5732
2017-12-10T08:35:55.907Z,6124
2017-12-10T08:36:56.381Z,6064
2017-12-10T08:37:56.133Z,5908
2017-12-10T08:38:56.142Z,6000
2017-12-10T08:39:56.152Z,6224
2017-12-10T08:40:56.164Z,6076
2017-12-10T08:41:56.431Z,6196
2017-12-10T08:42:56.497Z,6128
2017-12-10T08:43:56.452Z,6412
2017-12-10T08:44:56.464Z,6048
2017-12-10T08:45:56.476Z,5348
2017-12-10T08:46:56.233Z,5312
2017-12-10T08:47:56.500Z,5892
2017-12-10T08:48:56.255Z,5672
2017-12-10T08:49:56.016Z,5124
2017-12-10T08:50:56.582Z,5264
2017-12-10T08:51:56.542Z,5548
2017-12-10T08:52:56.557Z,5444
2017-12-10T08:53:56.313Z,5152
2017-12-10T08:54:56.326Z,5160
2017-12-10T08:55:56.608Z,5224
2017-12-10T08:56:56.606Z,5320
2017-12-10T08:57:56.819Z,5340
2017-12-10T08:58:56.119Z,5244
2017-12-10T08:59:56.651Z,5380
2017-12-10T09:00:56.655Z,5268
2017-12-10T09:01:56.668Z,5364
2017-12-10T09:02:56.168Z,5312
2017-12-10T09:03:56.685Z,5376
2017-12-10T09:04:56.698Z,5272
2017-12-10T09:05:57.055Z,5288
2017-12-10T09:06:56.718Z,5140
2017-12-10T09:07:56.734Z,5932
2017-12-10T09:08:56.500Z,5128
2017-12-10T09:09:56.250Z,4900
2017-12-10T09:10:56.522Z,4848
2017-12-10T09:11:56.334Z,5064
2017-12-10T09:12:56.794Z,4836
2017-12-10T09:13:56.300Z,4844
2017-12-10T09:14:56.563Z,4936
2017-12-10T09:15:56.827Z,5072
2017-12-10T09:16:56.838Z,4984
2017-12-10T09:17:56.804Z,4808
2017-12-10T09:18:56.617Z,4464
2017-12-10T09:19:56.621Z,4172
2017-12-10T09:20:56.887Z,3928
2017-12-10T09:21:56.391Z,3756
2017-12-10T09:22:56.900Z,3652
2017-12-10T09:23:56.662Z,3588
2017-12-10T09:24:56.684Z,3532
2017-12-10T09:25:56.962Z,3472
2017-12-10T09:26:56.698Z,3416
2017-12-10T09:27:56.457Z,3380
2017-12-10T09:28:56.726Z,3396
2017-12-10T09:29:56.987Z,3484
2017-12-10T09:30:56.748Z,3636
2017-12-10T09:31:56.765Z,3816
2017-12-10T09:32:56.787Z,3976
2017-12-10T09:33:56.798Z,4076
2017-12-10T09:34:57.054Z,4124
2017-12-10T09:35:56.307Z,4136
2017-12-10T09:36:56.874Z,4132
2017-12-10T09:37:56.839Z,4112
2017-12-10T09:38:57.099Z,4104
2017-12-10T09:39:56.867Z,4144
2017-12-10T09:40:56.873Z,4244
2017-12-10T09:41:57.133Z,4396
2017-12-10T09:42:57.152Z,4600
2017-12-10T09:43:57.161Z,4832
2017-12-10T09:44:56.919Z,5108
2017-12-10T09:45:56.678Z,5428
2017-12-10T09:46:57.196Z,5756
2017-12-10T09:47:57.204Z,6112
2017-12-10T09:48:57.224Z,6480
2017-12-10T09:49:56.732Z,6624
2017-12-10T09:50:57.242Z,6808
2017-12-10T09:51:57.285Z,6864
2017-12-10T09:52:57.267Z,6732
2017-12-10T09:53:57.334Z,6200
2017-12-10T09:54:56.784Z,5572
2017-12-10T09:55:57.048Z,4876
2017-12-10T09:56:57.314Z,4288
2017-12-10T09:57:57.325Z,3904
2017-12-10T09:58:57.104Z,3572
2017-12-10T09:59:57.350Z,3380
2017-12-10T10:00:56.856Z,3308
2017-12-10T10:01:56.866Z,3276
2017-12-10T10:02:57.140Z,3220
2017-12-10T10:03:57.406Z,3120
2017-12-10T10:04:57.151Z,3000
2017-12-10T10:05:57.420Z,2912
2017-12-10T10:06:57.432Z,2880
2017-12-10T10:07:57.495Z,2888
2017-12-10T10:08:57.208Z,2896
2017-12-10T10:09:57.224Z,2904
2017-12-10T10:10:56.985Z,2916
2017-12-10T10:11:56.986Z,2940
2017-12-10T10:12:57.510Z,2944
2017-12-10T10:13:57.520Z,2904
2017-12-10T10:14:57.532Z,2828
2017-12-10T10:15:57.037Z,2744
2017-12-10T10:16:57.553Z,2688
2017-12-10T10:17:57.567Z,2652
2017-12-10T10:18:57.579Z,2624
2017-12-10T10:19:57.590Z,2592
2017-12-10T10:20:57.609Z,2548
2017-12-10T10:21:57.608Z,2484
2017-12-10T10:22:57.674Z,2396
2017-12-10T10:23:57.633Z,2304
2017-12-10T10:24:57.650Z,2240
2017-12-10T10:25:57.412Z,2200
2017-12-10T10:26:57.676Z,2196
2017-12-10T10:27:57.431Z,2192
2017-12-10T10:28:57.692Z,2172
2017-12-10T10:29:57.731Z,2124
2017-12-10T10:30:57.213Z,2072
2017-12-10T10:31:57.731Z,2048
2017-12-10T10:32:57.748Z,2068
2017-12-10T10:33:57.258Z,2128
2017-12-10T10:34:57.517Z,2196
2017-12-10T10:35:57.526Z,2252
2017-12-10T10:36:57.808Z,2292
2017-12-10T10:37:57.609Z,2308
2017-12-10T10:38:57.815Z,2304
2017-12-10T10:39:57.575Z,2280
2017-12-10T10:40:57.584Z,2280
2017-12-10T10:41:57.099Z,2308
2017-12-10T10:42:57.358Z,2360
2017-12-10T10:43:57.883Z,2412
2017-12-10T10:44:57.653Z,2432
2017-12-10T10:45:57.394Z,2420
2017-12-10T10:46:57.917Z,2400
2017-12-10T10:47:57.674Z,2356
2017-12-10T10:48:57.933Z,2304
2017-12-10T10:49:57.702Z,2236
2017-12-10T10:50:57.711Z,2160
2017-12-10T10:51:57.771Z,2088
2017-12-10T10:52:57.899Z,2024
2017-12-10T10:53:58.000Z,1968
2017-12-10T10:54:58.014Z,1928
2017-12-10T10:55:57.796Z,1904
2017-12-10T10:56:57.538Z,1904
2017-12-10T10:57:57.798Z,1916
2017-12-10T10:58:57.889Z,1936
2017-12-10T10:59:58.080Z,1960
2017-12-10T11:00:57.579Z,1996
2017-12-10T11:01:57.842Z,2044
2017-12-10T11:02:57.855Z,2100
2017-12-10T11:03:57.658Z,2148
2017-12-10T11:04:58.252Z,2168
2017-12-10T11:05:58.140Z,2136
2017-12-10T11:06:57.659Z,2056
2017-12-10T11:07:57.965Z,1936
2017-12-10T11:08:57.672Z,1816
2017-12-10T11:09:57.943Z,1720
2017-12-10T11:10:57.975Z,1660
2017-12-10T11:11:57.966Z,1616
2017-12-10T11:12:58.228Z,1584
2017-12-10T11:13:58.239Z,1580
2017-12-10T11:14:58.053Z,1584
2017-12-10T11:15:57.763Z,1600
2017-12-10T11:16:58.279Z,1628
2017-12-10T11:17:58.039Z,1636
2017-12-10T11:18:58.058Z,1616
2017-12-10T11:19:57.812Z,1552
2017-12-10T11:20:58.325Z,1476
2017-12-10T11:21:57.879Z,1424
2017-12-10T11:22:58.396Z,1384
2017-12-10T11:23:58.358Z,1360
2017-12-10T11:24:58.379Z,1352
2017-12-10T11:25:58.385Z,1384
2017-12-10T11:26:58.404Z,1388
2017-12-10T11:27:58.403Z,1412
2017-12-10T11:28:58.170Z,1436
2017-12-10T11:29:58.432Z,1452
2017-12-10T11:30:58.475Z,1436
2017-12-10T11:31:58.470Z,1464
2017-12-10T11:32:58.599Z,1468
2017-12-10T11:33:58.493Z,1460
2017-12-10T11:34:58.241Z,1476
2017-12-10T11:35:58.251Z,1432
2017-12-10T11:36:58.517Z,1364
2017-12-10T11:37:58.335Z,1324
2017-12-10T11:38:58.043Z,1292
2017-12-10T11:39:58.366Z,1232
2017-12-10T11:40:58.060Z,1148
2017-12-10T11:41:58.588Z,1140
2017-12-10T11:42:58.587Z,1164
2017-12-10T11:43:58.605Z,1112
2017-12-10T11:44:58.626Z,1092
2017-12-10T11:45:58.382Z,1164
2017-12-10T11:46:58.387Z,1196
2017-12-10T11:47:58.661Z,1124
2017-12-10T11:48:58.155Z,1196
2017-12-10T11:49:58.423Z,1320
2017-12-10T11:50:58.684Z,1416
2017-12-10T11:51:58.697Z,1436
2017-12-10T11:52:58.731Z,1444
2017-12-10T11:53:58.519Z,1504
2017-12-10T11:54:58.229Z,1540
2017-12-10T11:55:58.744Z,1556
2017-12-10T11:56:58.758Z,1612
2017-12-10T11:57:58.817Z,1668
2017-12-10T11:58:58.276Z,1696
2017-12-10T11:59:58.547Z,1708
2017-12-10T12:00:58.299Z,1668
2017-12-10T12:01:58.822Z,1548
2017-12-10T12:02:58.831Z,1468
2017-12-10T12:03:58.854Z,1396
2017-12-10T12:04:58.864Z,1364
2017-12-10T12:05:58.865Z,1348
2017-12-10T12:06:58.621Z,1356
2017-12-10T12:07:58.887Z,1332
2017-12-10T12:08:58.949Z,1340
2017-12-10T12:09:58.416Z,1336
2017-12-10T12:10:58.924Z,1344
2017-12-10T12:11:58.683Z,1332
2017-12-10T12:12:58.946Z,1344
2017-12-10T12:13:58.204Z,1364
2017-12-10T12:14:58.722Z,1396
2017-12-10T12:15:58.985Z,1440
2017-12-10T12:16:58.493Z,1480
2017-12-10T12:17:58.758Z,1504
2017-12-10T12:18:58.769Z,1532
2017-12-10T12:19:59.033Z,1572
2017-12-10T12:20:58.788Z,1588
2017-12-10T12:21:59.065Z,1584
2017-12-10T12:22:59.070Z,1576
2017-12-10T12:23:59.100Z,1568
2017-12-10T12:24:58.838Z,1580
2017-12-10T12:25:58.909Z,1620
2017-12-10T12:26:58.609Z,1652
2017-12-10T12:27:58.872Z,1688
2017-12-10T12:28:58.886Z,1736
2017-12-10T12:29:59.158Z,1768
2017-12-10T12:30:58.908Z,1796
2017-12-10T12:31:58.920Z,1800
2017-12-10T12:32:59.188Z,1752
2017-12-10T12:33:58.943Z,1700
2017-12-10T12:34:59.206Z,1692
2017-12-10T12:35:58.970Z,1716
2017-12-10T12:36:59.235Z,1724
2017-12-10T12:37:58.991Z,1720
2017-12-10T12:38:59.024Z,1728
2017-12-10T12:39:59.325Z,1744
2017-12-10T12:40:58.773Z,1740
2017-12-10T12:41:58.787Z,1700
2017-12-10T12:42:58.796Z,1724
2017-12-10T12:43:59.320Z,1748
2017-12-10T12:44:59.081Z,1776
2017-12-10T12:45:59.090Z,1800
2017-12-10T12:46:59.348Z,1788
2017-12-10T12:47:58.853Z,1772
2017-12-10T12:48:58.867Z,1776
2017-12-10T12:49:59.135Z,1784
2017-12-10T12:50:58.639Z,1788
2017-12-10T12:51:59.156Z,1832
2017-12-10T12:52:59.418Z,1900
2017-12-10T12:53:59.431Z,1912
2017-12-10T12:54:59.209Z,1824
2017-12-10T12:55:59.459Z,1692
2017-12-10T12:56:58.976Z,1628
2017-12-10T12:57:59.480Z,1604
2017-12-10T12:58:59.238Z,1640
2017-12-10T12:59:59.262Z,1684
2017-12-10T13:00:59.089Z,1764
2017-12-10T13:01:59.530Z,1832
2017-12-10T13:02:59.537Z,1812
2017-12-10T13:03:59.297Z,1776
2017-12-10T13:04:59.557Z,1744
2017-12-10T13:05:59.577Z,1748
2017-12-10T13:06:59.588Z,1756
2017-12-10T13:07:59.602Z,1780
2017-12-10T13:08:59.102Z,1748
2017-12-10T13:09:59.670Z,1732
2017-12-10T13:10:59.392Z,1760
2017-12-10T13:11:59.393Z,1736
2017-12-10T13:12:59.659Z,1676
2017-12-10T13:13:59.418Z,1648
2017-12-10T13:14:59.677Z,1544
2017-12-10T13:15:58.932Z,1480
2017-12-10T13:16:59.199Z,1440
2017-12-10T13:17:59.462Z,1412
2017-12-10T13:18:59.721Z,1392
2017-12-10T13:19:59.736Z,1412
2017-12-10T13:20:59.796Z,1416
2017-12-10T13:21:59.501Z,1444
2017-12-10T13:22:59.763Z,1444
2017-12-10T13:23:59.776Z,1392
2017-12-10T13:24:59.535Z,1368
2017-12-10T13:25:59.852Z,1324
2017-12-10T13:26:59.565Z,1264
2017-12-10T13:27:59.594Z,1196
2017-12-10T13:28:59.595Z,1180
2017-12-10T13:29:59.338Z,1140
2017-12-10T13:30:59.861Z,1120
2017-12-10T13:31:59.365Z,1184
2017-12-10T13:32:59.628Z,1220
2017-12-10T13:33:59.884Z,1240
2017-12-10T13:34:59.645Z,1220
2017-12-10T13:35:59.415Z,1208
2017-12-10T13:36:59.423Z,1244
2017-12-10T13:38:00.021Z,1248
2017-12-10T13:38:59.701Z,1244
2017-12-10T13:39:59.979Z,1272
2017-12-10T13:41:00.028Z,1296
2017-12-10T13:41:59.993Z,1268
2017-12-10T13:42:59.757Z,1240
2017-12-10T13:44:00.014Z,1236
2017-12-10T13:44:59.520Z,1128
2017-12-10T13:45:59.784Z,1084
2017-12-10T13:46:59.551Z,1092
2017-12-10T13:48:00.060Z,1124
2017-12-10T13:49:00.073Z,1116
2017-12-10T13:50:00.082Z,1120
2017-12-10T13:50:59.940Z,1108
2017-12-10T13:52:00.105Z,1024
2017-12-10T13:52:59.867Z,972
2017-12-10T13:53:59.885Z,948
2017-12-10T13:54:59.638Z,944
2017-12-10T13:55:59.699Z,960
2017-12-10T13:56:59.661Z,936
2017-12-10T13:57:59.668Z,900
2017-12-10T13:58:59.936Z,848
2017-12-10T13:59:59.454Z,852